sensor_id;sensor_type;location;lat;lon;timestamp;temperature;humidity
39493;DHT22;25176;51.060;3.720;2023-04-01T00:00:22;11.60;99.90
39493;DHT22;25176;51.060;3.720;2023-04-01T00:02:48;11.50;99.90
39493;DHT22;25176;51.060;3.720;2023-04-01T00:05:14;11.60;99.90
39493;DHT22;25176;51.060;3.720;2023-04-01T00:07:41;11.60;99.90
39493;DHT22;25176;51.060;3.720;2023-04-01T00:10:08;11.50;99.90
39493;DHT22;25176;51.060;3.720;2023-04-01T00:12:35;11.50;99.90
39493;DHT22;25176;51.060;3.720;2023-04-01T00:15:02;11.70;99.90
39493;DHT22;25176;51.060;3.720;2023-04-01T00:17:27;11.70;99.90
39493;DHT22;25176;51.060;3.720;2023-04-01T00:19:55;11.70;99.90
39493;DHT22;25176;51.060;3.720;2023-04-01T00:22:20;11.60;99.90
39493;DHT22;25176;51.060;3.720;2023-04-01T00:24:47;11.70;99.90
39493;DHT22;25176;51.060;3.720;2023-04-01T00:27:13;11.60;99.90
39493;DHT22;25176;51.060;3.720;2023-04-01T00:29:45;11.60;99.90
39493;DHT22;25176;51.060;3.720;2023-04-01T00:32:12;11.60;99.90
39493;DHT22;25176;51.060;3.720;2023-04-01T00:34:38;11.50;99.90
39493;DHT22;25176;51.060;3.720;2023-04-01T00:37:05;11.60;99.90
39493;DHT22;25176;51.060;3.720;2023-04-01T00:39:31;11.60;99.90
39493;DHT22;25176;51.060;3.720;2023-04-01T00:41:59;11.70;99.90
39493;DHT22;25176;51.060;3.720;2023-04-01T00:44:27;11.60;99.90
39493;DHT22;25176;51.060;3.720;2023-04-01T00:46:53;11.60;99.90
39493;DHT22;25176;51.060;3.720;2023-04-01T00:49:22;11.60;99.90
39493;DHT22;25176;51.060;3.720;2023-04-01T00:51:53;11.60;99.90
39493;DHT22;25176;51.060;3.720;2023-04-01T00:54:21;11.60;99.90
39493;DHT22;25176;51.060;3.720;2023-04-01T00:56:49;11.60;99.90
39493;DHT22;25176;51.060;3.720;2023-04-01T00:59:23;11.50;99.90
39493;DHT22;25176;51.060;3.720;2023-04-01T01:01:49;11.40;99.90
39493;DHT22;25176;51.060;3.720;2023-04-01T01:04:29;11.40;99.90
39493;DHT22;25176;51.060;3.720;2023-04-01T01:13:17;11.30;99.90
39493;DHT22;25176;51.060;3.720;2023-04-01T01:19:07;11.20;99.90
39493;DHT22;25176;51.060;3.720;2023-04-01T01:27:19;11.20;99.90
39493;DHT22;25176;51.060;3.720;2023-04-01T01:35:24;11.30;99.90
39493;DHT22;25176;51.060;3.720;2023-04-01T01:37:56;11.40;99.90
39493;DHT22;25176;51.060;3.720;2023-04-01T01:40:24;11.30;99.90
39493;DHT22;25176;51.060;3.720;2023-04-01T01:42:53;11.30;99.90
39493;DHT22;25176;51.060;3.720;2023-04-01T01:45:21;11.30;99.90
39493;DHT22;25176;51.060;3.720;2023-04-01T01:47:49;11.30;99.90
39493;DHT22;25176;51.060;3.720;2023-04-01T01:50:15;11.30;99.90
39493;DHT22;25176;51.060;3.720;2023-04-01T01:52:42;11.40;99.90
39493;DHT22;25176;51.060;3.720;2023-04-01T01:55:28;11.40;99.90
39493;DHT22;25176;51.060;3.720;2023-04-01T01:57:58;11.30;99.90
39493;DHT22;25176;51.060;3.720;2023-04-01T02:00:26;11.40;99.90
39493;DHT22;25176;51.060;3.720;2023-04-01T02:02:53;11.40;99.90
39493;DHT22;25176;51.060;3.720;2023-04-01T02:05:21;11.30;99.90
39493;DHT22;25176;51.060;3.720;2023-04-01T02:07:54;11.20;99.90
39493;DHT22;25176;51.060;3.720;2023-04-01T02:10:25;11.20;99.90
39493;DHT22;25176;51.060;3.720;2023-04-01T02:12:51;11.20;99.90
39493;DHT22;25176;51.060;3.720;2023-04-01T02:15:19;11.30;99.90
39493;DHT22;25176;51.060;3.720;2023-04-01T02:17:47;11.30;99.90
39493;DHT22;25176;51.060;3.720;2023-04-01T02:20:19;11.30;99.90
39493;DHT22;25176;51.060;3.720;2023-04-01T02:22:48;11.30;99.90
39493;DHT22;25176;51.060;3.720;2023-04-01T02:25:20;11.20;99.90
39493;DHT22;25176;51.060;3.720;2023-04-01T02:27:47;11.20;99.90
39493;DHT22;25176;51.060;3.720;2023-04-01T02:30:17;11.10;99.90
39493;DHT22;25176;51.060;3.720;2023-04-01T02:32:43;11.20;99.90
39493;DHT22;25176;51.060;3.720;2023-04-01T02:35:11;11.20;99.90
39493;DHT22;25176;51.060;3.720;2023-04-01T02:37:38;11.20;99.90
39493;DHT22;25176;51.060;3.720;2023-04-01T02:40:09;11.30;99.90
39493;DHT22;25176;51.060;3.720;2023-04-01T02:42:35;11.20;99.90
39493;DHT22;25176;51.060;3.720;2023-04-01T02:45:01;11.10;99.90
39493;DHT22;25176;51.060;3.720;2023-04-01T02:47:27;11.10;99.90
39493;DHT22;25176;51.060;3.720;2023-04-01T02:49:53;11.10;99.90
39493;DHT22;25176;51.060;3.720;2023-04-01T02:52:29;11.10;99.90
39493;DHT22;25176;51.060;3.720;2023-04-01T02:54:55;11.20;99.90
39493;DHT22;25176;51.060;3.720;2023-04-01T02:57:22;11.20;99.90
39493;DHT22;25176;51.060;3.720;2023-04-01T02:59:47;11.20;99.90
39493;DHT22;25176;51.060;3.720;2023-04-01T03:02:13;11.30;99.90
39493;DHT22;25176;51.060;3.720;2023-04-01T03:04:39;11.20;99.90
39493;DHT22;25176;51.060;3.720;2023-04-01T03:07:05;11.20;99.90
39493;DHT22;25176;51.060;3.720;2023-04-01T03:09:30;11.20;99.90
39493;DHT22;25176;51.060;3.720;2023-04-01T03:11:56;11.10;99.90
39493;DHT22;25176;51.060;3.720;2023-04-01T03:14:22;11.10;99.90
39493;DHT22;25176;51.060;3.720;2023-04-01T03:16:48;11.10;99.90
39493;DHT22;25176;51.060;3.720;2023-04-01T03:19:13;11.10;99.90
39493;DHT22;25176;51.060;3.720;2023-04-01T03:21:39;11.20;99.90
39493;DHT22;25176;51.060;3.720;2023-04-01T03:24:05;11.20;99.90
39493;DHT22;25176;51.060;3.720;2023-04-01T03:26:31;11.20;99.90
39493;DHT22;25176;51.060;3.720;2023-04-01T03:28:57;11.30;99.90
39493;DHT22;25176;51.060;3.720;2023-04-01T03:31:23;11.30;99.90
39493;DHT22;25176;51.060;3.720;2023-04-01T03:33:48;11.30;99.90
39493;DHT22;25176;51.060;3.720;2023-04-01T03:36:14;11.20;99.90
39493;DHT22;25176;51.060;3.720;2023-04-01T03:38:40;11.20;99.90
39493;DHT22;25176;51.060;3.720;2023-04-01T03:41:06;11.40;99.90
39493;DHT22;25176;51.060;3.720;2023-04-01T03:43:32;11.40;99.90
39493;DHT22;25176;51.060;3.720;2023-04-01T03:45:58;11.40;99.90
39493;DHT22;25176;51.060;3.720;2023-04-01T03:48:25;11.40;99.90
39493;DHT22;25176;51.060;3.720;2023-04-01T03:50:51;11.30;99.90
39493;DHT22;25176;51.060;3.720;2023-04-01T03:53:17;11.30;99.90
39493;DHT22;25176;51.060;3.720;2023-04-01T03:55:43;11.20;99.90
39493;DHT22;25176;51.060;3.720;2023-04-01T03:58:08;11.20;99.90
39493;DHT22;25176;51.060;3.720;2023-04-01T04:00:34;11.20;99.90
39493;DHT22;25176;51.060;3.720;2023-04-01T04:03:00;11.20;99.90
39493;DHT22;25176;51.060;3.720;2023-04-01T04:05:26;11.10;99.90
39493;DHT22;25176;51.060;3.720;2023-04-01T04:07:53;11.20;99.90
39493;DHT22;25176;51.060;3.720;2023-04-01T04:10:20;11.10;99.90
39493;DHT22;25176;51.060;3.720;2023-04-01T04:12:45;11.10;99.90
39493;DHT22;25176;51.060;3.720;2023-04-01T04:15:11;11.10;99.90
39493;DHT22;25176;51.060;3.720;2023-04-01T04:17:37;11.20;99.90
39493;DHT22;25176;51.060;3.720;2023-04-01T04:20:03;11.10;99.90
39493;DHT22;25176;51.060;3.720;2023-04-01T04:22:29;11.00;99.90
39493;DHT22;25176;51.060;3.720;2023-04-01T04:24:54;11.10;99.90
39493;DHT22;25176;51.060;3.720;2023-04-01T04:27:20;11.10;99.90
39493;DHT22;25176;51.060;3.720;2023-04-01T04:29:45;11.10;99.90
39493;DHT22;25176;51.060;3.720;2023-04-01T04:32:11;11.00;99.90
39493;DHT22;25176;51.060;3.720;2023-04-01T04:34:36;11.00;99.90
39493;DHT22;25176;51.060;3.720;2023-04-01T04:37:03;11.00;99.90
39493;DHT22;25176;51.060;3.720;2023-04-01T04:39:28;11.00;99.90
39493;DHT22;25176;51.060;3.720;2023-04-01T04:41:54;11.10;99.90
39493;DHT22;25176;51.060;3.720;2023-04-01T04:44:20;10.90;99.90
39493;DHT22;25176;51.060;3.720;2023-04-01T04:46:45;11.00;99.90
39493;DHT22;25176;51.060;3.720;2023-04-01T04:49:11;11.00;99.90
39493;DHT22;25176;51.060;3.720;2023-04-01T04:51:37;10.80;99.90
39493;DHT22;25176;51.060;3.720;2023-04-01T04:54:03;10.90;99.90
39493;DHT22;25176;51.060;3.720;2023-04-01T04:56:29;11.00;99.90
39493;DHT22;25176;51.060;3.720;2023-04-01T04:58:56;11.00;99.90
39493;DHT22;25176;51.060;3.720;2023-04-01T05:01:22;11.00;99.90
39493;DHT22;25176;51.060;3.720;2023-04-01T05:03:48;11.00;99.90
39493;DHT22;25176;51.060;3.720;2023-04-01T05:06:14;11.10;99.90
39493;DHT22;25176;51.060;3.720;2023-04-01T05:08:41;11.00;99.90
39493;DHT22;25176;51.060;3.720;2023-04-01T05:11:11;11.00;99.90
39493;DHT22;25176;51.060;3.720;2023-04-01T05:13:37;11.00;99.90
39493;DHT22;25176;51.060;3.720;2023-04-01T05:16:03;11.00;99.90
39493;DHT22;25176;51.060;3.720;2023-04-01T05:18:28;11.00;99.90
39493;DHT22;25176;51.060;3.720;2023-04-01T05:20:55;11.00;99.90
39493;DHT22;25176;51.060;3.720;2023-04-01T05:23:21;11.00;99.90
39493;DHT22;25176;51.060;3.720;2023-04-01T05:25:51;11.00;99.90
39493;DHT22;25176;51.060;3.720;2023-04-01T05:28:18;10.90;99.90
39493;DHT22;25176;51.060;3.720;2023-04-01T05:30:44;10.90;99.90
39493;DHT22;25176;51.060;3.720;2023-04-01T05:33:11;10.90;99.90
39493;DHT22;25176;51.060;3.720;2023-04-01T05:35:38;10.90;99.90
39493;DHT22;25176;51.060;3.720;2023-04-01T05:38:04;10.90;99.90
39493;DHT22;25176;51.060;3.720;2023-04-01T05:40:30;10.90;99.90
39493;DHT22;25176;51.060;3.720;2023-04-01T05:42:56;10.80;99.90
39493;DHT22;25176;51.060;3.720;2023-04-01T05:45:22;10.90;99.90
39493;DHT22;25176;51.060;3.720;2023-04-01T05:47:47;10.90;99.90
39493;DHT22;25176;51.060;3.720;2023-04-01T05:50:13;11.00;99.90
39493;DHT22;25176;51.060;3.720;2023-04-01T05:52:39;11.00;99.90
39493;DHT22;25176;51.060;3.720;2023-04-01T05:55:05;11.00;99.90
39493;DHT22;25176;51.060;3.720;2023-04-01T05:57:30;11.00;99.90
39493;DHT22;25176;51.060;3.720;2023-04-01T05:59:56;10.90;99.90
39493;DHT22;25176;51.060;3.720;2023-04-01T06:02:22;11.00;99.90
39493;DHT22;25176;51.060;3.720;2023-04-01T06:04:48;10.90;99.90
39493;DHT22;25176;51.060;3.720;2023-04-01T06:07:15;10.80;99.90
39493;DHT22;25176;51.060;3.720;2023-04-01T06:09:42;10.80;99.90
39493;DHT22;25176;51.060;3.720;2023-04-01T06:12:25;10.90;99.90
39493;DHT22;25176;51.060;3.720;2023-04-01T06:15:50;11.00;99.90
39493;DHT22;25176;51.060;3.720;2023-04-01T06:18:38;11.10;99.90
39493;DHT22;25176;51.060;3.720;2023-04-01T06:28:38;11.00;99.90
39493;DHT22;25176;51.060;3.720;2023-04-01T06:36:34;11.10;99.90
39493;DHT22;25176;51.060;3.720;2023-04-01T06:39:47;11.10;99.90
39493;DHT22;25176;51.060;3.720;2023-04-01T06:48:28;10.90;99.90
39493;DHT22;25176;51.060;3.720;2023-04-01T06:56:17;11.00;99.90
39493;DHT22;25176;51.060;3.720;2023-04-01T06:58:51;11.10;99.90
39493;DHT22;25176;51.060;3.720;2023-04-01T07:01:44;11.10;99.90
39493;DHT22;25176;51.060;3.720;2023-04-01T07:04:15;11.10;99.90
39493;DHT22;25176;51.060;3.720;2023-04-01T07:06:56;11.20;99.90
39493;DHT22;25176;51.060;3.720;2023-04-01T07:09:33;11.30;99.90
39493;DHT22;25176;51.060;3.720;2023-04-01T07:12:02;11.30;99.90
39493;DHT22;25176;51.060;3.720;2023-04-01T07:14:34;11.40;99.90
39493;DHT22;25176;51.060;3.720;2023-04-01T07:17:15;11.40;99.90
39493;DHT22;25176;51.060;3.720;2023-04-01T07:19:46;11.30;99.90
39493;DHT22;25176;51.060;3.720;2023-04-01T07:22:32;11.30;99.90
39493;DHT22;25176;51.060;3.720;2023-04-01T07:25:15;11.20;99.90
39493;DHT22;25176;51.060;3.720;2023-04-01T07:27:46;11.30;99.90
39493;DHT22;25176;51.060;3.720;2023-04-01T07:30:16;11.10;99.90
39493;DHT22;25176;51.060;3.720;2023-04-01T07:35:30;11.20;99.90
39493;DHT22;25176;51.060;3.720;2023-04-01T07:44:02;11.30;99.90
39493;DHT22;25176;51.060;3.720;2023-04-01T07:49:41;11.30;99.90
39493;DHT22;25176;51.060;3.720;2023-04-01T07:55:24;11.30;99.90
39493;DHT22;25176;51.060;3.720;2023-04-01T08:01:43;11.40;99.90
39493;DHT22;25176;51.060;3.720;2023-04-01T08:04:02;11.50;99.90
39493;DHT22;25176;51.060;3.720;2023-04-01T08:06:36;11.40;99.90
39493;DHT22;25176;51.060;3.720;2023-04-01T08:09:40;11.50;99.90
39493;DHT22;25176;51.060;3.720;2023-04-01T08:12:37;11.60;99.90
39493;DHT22;25176;51.060;3.720;2023-04-01T08:20:45;11.30;99.90
39493;DHT22;25176;51.060;3.720;2023-04-01T08:23:21;11.30;99.90
39493;DHT22;25176;51.060;3.720;2023-04-01T08:26:01;11.30;99.90
39493;DHT22;25176;51.060;3.720;2023-04-01T08:33:53;11.40;99.90
39493;DHT22;25176;51.060;3.720;2023-04-01T08:36:36;11.40;99.90
39493;DHT22;25176;51.060;3.720;2023-04-01T08:39:07;11.50;99.90
39493;DHT22;25176;51.060;3.720;2023-04-01T08:47:54;11.60;99.90
39493;DHT22;25176;51.060;3.720;2023-04-01T08:50:55;11.80;99.90
39493;DHT22;25176;51.060;3.720;2023-04-01T09:04:39;11.70;99.90
39493;DHT22;25176;51.060;3.720;2023-04-01T09:07:14;11.70;99.90
39493;DHT22;25176;51.060;3.720;2023-04-01T09:10:33;11.90;99.90
39493;DHT22;25176;51.060;3.720;2023-04-01T09:13:17;12.00;99.90
39493;DHT22;25176;51.060;3.720;2023-04-01T09:21:42;12.20;99.90
39493;DHT22;25176;51.060;3.720;2023-04-01T09:24:32;12.50;99.90
39493;DHT22;25176;51.060;3.720;2023-04-01T09:27:26;12.40;99.90
39493;DHT22;25176;51.060;3.720;2023-04-01T09:30:29;12.50;99.90
39493;DHT22;25176;51.060;3.720;2023-04-01T09:33:11;12.50;99.90
39493;DHT22;25176;51.060;3.720;2023-04-01T09:36:07;12.60;99.90
39493;DHT22;25176;51.060;3.720;2023-04-01T09:41:36;12.40;99.90
39493;DHT22;25176;51.060;3.720;2023-04-01T09:44:35;12.30;99.90
39493;DHT22;25176;51.060;3.720;2023-04-01T10:17:57;12.40;99.90
39493;DHT22;25176;51.060;3.720;2023-04-01T10:26:18;12.40;99.90
39493;DHT22;25176;51.060;3.720;2023-04-01T10:45:24;12.80;99.90
39493;DHT22;25176;51.060;3.720;2023-04-01T10:51:12;12.80;99.90
39493;DHT22;25176;51.060;3.720;2023-04-01T10:54:38;12.80;99.90
39493;DHT22;25176;51.060;3.720;2023-04-01T10:56:58;12.90;99.90
39493;DHT22;25176;51.060;3.720;2023-04-01T11:06:04;13.00;99.90
39493;DHT22;25176;51.060;3.720;2023-04-01T11:17:50;13.30;99.90
39493;DHT22;25176;51.060;3.720;2023-04-01T11:23:22;12.70;99.90
39493;DHT22;25176;51.060;3.720;2023-04-01T11:26:08;12.60;99.90
39493;DHT22;25176;51.060;3.720;2023-04-01T11:28:47;12.60;99.90
39493;DHT22;25176;51.060;3.720;2023-04-01T11:37:05;12.50;99.90
39493;DHT22;25176;51.060;3.720;2023-04-01T11:45:11;12.50;99.90
39493;DHT22;25176;51.060;3.720;2023-04-01T11:56:29;12.50;99.90
39493;DHT22;25176;51.060;3.720;2023-04-01T11:59:26;12.50;99.90
39493;DHT22;25176;51.060;3.720;2023-04-01T12:02:13;12.50;99.90
39493;DHT22;25176;51.060;3.720;2023-04-01T12:10:38;12.60;99.90
39493;DHT22;25176;51.060;3.720;2023-04-01T12:18:36;12.90;99.90
39493;DHT22;25176;51.060;3.720;2023-04-01T12:33:34;13.20;99.90
39493;DHT22;25176;51.060;3.720;2023-04-01T12:47:50;12.90;99.90
39493;DHT22;25176;51.060;3.720;2023-04-01T12:50:33;12.60;99.90
39493;DHT22;25176;51.060;3.720;2023-04-01T12:53:20;12.50;99.90
39493;DHT22;25176;51.060;3.720;2023-04-01T12:55:49;12.50;99.90
39493;DHT22;25176;51.060;3.720;2023-04-01T13:09:25;12.60;99.90
39493;DHT22;25176;51.060;3.720;2023-04-01T13:12:03;12.90;99.90
39493;DHT22;25176;51.060;3.720;2023-04-01T13:20:06;12.50;99.90
39493;DHT22;25176;51.060;3.720;2023-04-01T13:25:50;12.40;99.90
39493;DHT22;25176;51.060;3.720;2023-04-01T13:28:23;12.40;99.90
39493;DHT22;25176;51.060;3.720;2023-04-01T13:34:14;12.80;99.90
39493;DHT22;25176;51.060;3.720;2023-04-01T13:37:15;12.90;99.90
39493;DHT22;25176;51.060;3.720;2023-04-01T13:43:04;12.80;99.90
39493;DHT22;25176;51.060;3.720;2023-04-01T13:45:42;12.90;99.90
39493;DHT22;25176;51.060;3.720;2023-04-01T14:02:42;12.60;99.90
39493;DHT22;25176;51.060;3.720;2023-04-01T14:05:35;12.40;99.90
39493;DHT22;25176;51.060;3.720;2023-04-01T14:11:22;12.30;99.90
39493;DHT22;25176;51.060;3.720;2023-04-01T14:19:51;12.60;99.90
39493;DHT22;25176;51.060;3.720;2023-04-01T14:28:27;12.40;99.90
39493;DHT22;25176;51.060;3.720;2023-04-01T14:40:06;12.40;99.90
39493;DHT22;25176;51.060;3.720;2023-04-01T14:51:02;12.50;99.90
39493;DHT22;25176;51.060;3.720;2023-04-01T14:53:33;12.70;99.90
39493;DHT22;25176;51.060;3.720;2023-04-01T14:56:02;12.80;99.90
39493;DHT22;25176;51.060;3.720;2023-04-01T14:58:45;12.60;99.90
39493;DHT22;25176;51.060;3.720;2023-04-01T15:01:47;12.50;99.90
39493;DHT22;25176;51.060;3.720;2023-04-01T15:05:10;12.50;99.90
39493;DHT22;25176;51.060;3.720;2023-04-01T15:07:50;12.30;99.90
39493;DHT22;25176;51.060;3.720;2023-04-01T15:10:28;12.30;99.90
39493;DHT22;25176;51.060;3.720;2023-04-01T15:13:17;12.30;99.90
39493;DHT22;25176;51.060;3.720;2023-04-01T15:18:54;12.60;99.90
39493;DHT22;25176;51.060;3.720;2023-04-01T15:21:24;12.50;99.90
39493;DHT22;25176;51.060;3.720;2023-04-01T15:26:57;12.60;99.90
39493;DHT22;25176;51.060;3.720;2023-04-01T15:30:21;12.60;99.90
39493;DHT22;25176;51.060;3.720;2023-04-01T15:40:47;12.30;99.90
39493;DHT22;25176;51.060;3.720;2023-04-01T15:43:46;12.10;99.90
39493;DHT22;25176;51.060;3.720;2023-04-01T15:46:47;12.10;99.90
39493;DHT22;25176;51.060;3.720;2023-04-01T15:49:42;11.90;99.90
39493;DHT22;25176;51.060;3.720;2023-04-01T15:57:35;12.00;99.90
39493;DHT22;25176;51.060;3.720;2023-04-01T16:00:30;11.80;99.90
39493;DHT22;25176;51.060;3.720;2023-04-01T16:11:36;11.80;99.90
39493;DHT22;25176;51.060;3.720;2023-04-01T16:17:36;11.70;99.90
39493;DHT22;25176;51.060;3.720;2023-04-01T16:20:20;11.60;99.90
39493;DHT22;25176;51.060;3.720;2023-04-01T16:23:33;11.70;99.90
39493;DHT22;25176;51.060;3.720;2023-04-01T16:28:48;11.70;99.90
39493;DHT22;25176;51.060;3.720;2023-04-01T16:31:43;11.50;99.90
39493;DHT22;25176;51.060;3.720;2023-04-01T16:34:34;11.40;99.90
39493;DHT22;25176;51.060;3.720;2023-04-01T16:37:07;11.50;99.90
39493;DHT22;25176;51.060;3.720;2023-04-01T16:42:51;11.60;99.90
39493;DHT22;25176;51.060;3.720;2023-04-01T16:45:36;11.70;99.90
39493;DHT22;25176;51.060;3.720;2023-04-01T16:48:13;11.70;99.90
39493;DHT22;25176;51.060;3.720;2023-04-01T16:51:02;11.60;99.90
39493;DHT22;25176;51.060;3.720;2023-04-01T16:53:43;11.60;99.90
39493;DHT22;25176;51.060;3.720;2023-04-01T16:56:27;11.40;99.90
39493;DHT22;25176;51.060;3.720;2023-04-01T17:04:23;11.20;99.90
39493;DHT22;25176;51.060;3.720;2023-04-01T17:10:10;11.30;99.90
39493;DHT22;25176;51.060;3.720;2023-04-01T17:21:04;11.30;99.90
39493;DHT22;25176;51.060;3.720;2023-04-01T17:23:40;11.20;99.90
39493;DHT22;25176;51.060;3.720;2023-04-01T17:26:39;11.30;99.90
39493;DHT22;25176;51.060;3.720;2023-04-01T17:29:37;11.20;99.90
39493;DHT22;25176;51.060;3.720;2023-04-01T17:32:13;11.10;99.90
39493;DHT22;25176;51.060;3.720;2023-04-01T17:43:12;11.10;99.90
39493;DHT22;25176;51.060;3.720;2023-04-01T17:45:49;11.10;99.90
39493;DHT22;25176;51.060;3.720;2023-04-01T17:56:47;10.90;99.90
39493;DHT22;25176;51.060;3.720;2023-04-01T17:59:31;10.90;99.90
39493;DHT22;25176;51.060;3.720;2023-04-01T18:10:40;10.80;99.90
39493;DHT22;25176;51.060;3.720;2023-04-01T18:13:29;10.90;99.90
39493;DHT22;25176;51.060;3.720;2023-04-01T18:21:48;10.80;99.90
39493;DHT22;25176;51.060;3.720;2023-04-01T18:24:40;10.70;99.90
39493;DHT22;25176;51.060;3.720;2023-04-01T18:27:18;10.80;99.90
39493;DHT22;25176;51.060;3.720;2023-04-01T18:32:37;10.80;99.90
39493;DHT22;25176;51.060;3.720;2023-04-01T18:35:34;10.80;99.90
39493;DHT22;25176;51.060;3.720;2023-04-01T18:38:12;10.70;99.90
39493;DHT22;25176;51.060;3.720;2023-04-01T18:51:25;10.70;99.90
39493;DHT22;25176;51.060;3.720;2023-04-01T18:53:56;10.70;99.90
39493;DHT22;25176;51.060;3.720;2023-04-01T18:59:10;10.60;99.90
39493;DHT22;25176;51.060;3.720;2023-04-01T19:01:47;10.60;99.90
39493;DHT22;25176;51.060;3.720;2023-04-01T19:04:39;10.40;99.90
39493;DHT22;25176;51.060;3.720;2023-04-01T19:07:41;10.40;99.90
39493;DHT22;25176;51.060;3.720;2023-04-01T19:18:41;10.60;99.90
39493;DHT22;25176;51.060;3.720;2023-04-01T19:21:35;10.50;99.90
39493;DHT22;25176;51.060;3.720;2023-04-01T19:27:58;10.40;99.90
39493;DHT22;25176;51.060;3.720;2023-04-01T19:47:04;10.50;99.90
39493;DHT22;25176;51.060;3.720;2023-04-01T19:52:20;10.60;99.90
39493;DHT22;25176;51.060;3.720;2023-04-01T19:57:53;10.70;99.90
39493;DHT22;25176;51.060;3.720;2023-04-01T20:13:46;10.50;99.90
39493;DHT22;25176;51.060;3.720;2023-04-01T20:16:13;10.50;99.90
39493;DHT22;25176;51.060;3.720;2023-04-01T20:18:54;10.60;99.90
39493;DHT22;25176;51.060;3.720;2023-04-01T20:21:30;10.60;99.90
39493;DHT22;25176;51.060;3.720;2023-04-01T20:24:00;10.50;99.90
39493;DHT22;25176;51.060;3.720;2023-04-01T20:26:35;10.50;99.90
39493;DHT22;25176;51.060;3.720;2023-04-01T20:31:59;10.50;99.90
39493;DHT22;25176;51.060;3.720;2023-04-01T20:40:35;10.40;99.90
39493;DHT22;25176;51.060;3.720;2023-04-01T20:43:16;10.30;99.90
39493;DHT22;25176;51.060;3.720;2023-04-01T20:46:27;10.40;99.90
39493;DHT22;25176;51.060;3.720;2023-04-01T21:05:35;10.50;99.90
39493;DHT22;25176;51.060;3.720;2023-04-01T21:11:04;10.30;99.90
39493;DHT22;25176;51.060;3.720;2023-04-01T21:19:24;10.50;99.90
39493;DHT22;25176;51.060;3.720;2023-04-01T21:30:44;10.30;99.90
39493;DHT22;25176;51.060;3.720;2023-04-01T21:33:31;10.30;99.90
39493;DHT22;25176;51.060;3.720;2023-04-01T21:36:14;10.30;99.90
39493;DHT22;25176;51.060;3.720;2023-04-01T21:45:13;10.40;99.90
39493;DHT22;25176;51.060;3.720;2023-04-01T21:53:59;10.30;99.90
39493;DHT22;25176;51.060;3.720;2023-04-01T21:57:01;10.30;99.90
39493;DHT22;25176;51.060;3.720;2023-04-01T22:08:35;10.60;99.90
39493;DHT22;25176;51.060;3.720;2023-04-01T22:19:17;10.40;99.90
39493;DHT22;25176;51.060;3.720;2023-04-01T22:32:45;10.10;99.90
39493;DHT22;25176;51.060;3.720;2023-04-01T22:38:10;10.20;99.90
39493;DHT22;25176;51.060;3.720;2023-04-01T22:40:47;10.20;99.90
39493;DHT22;25176;51.060;3.720;2023-04-01T22:43:25;10.20;99.90
39493;DHT22;25176;51.060;3.720;2023-04-01T22:46:09;10.20;99.90
39493;DHT22;25176;51.060;3.720;2023-04-01T22:51:17;10.30;99.90
39493;DHT22;25176;51.060;3.720;2023-04-01T22:54:02;10.30;99.90
39493;DHT22;25176;51.060;3.720;2023-04-01T22:56:37;10.30;99.90
39493;DHT22;25176;51.060;3.720;2023-04-01T23:01:36;10.30;99.90
39493;DHT22;25176;51.060;3.720;2023-04-01T23:04:05;10.20;99.90
39493;DHT22;25176;51.060;3.720;2023-04-01T23:06:38;10.20;99.90
39493;DHT22;25176;51.060;3.720;2023-04-01T23:09:23;10.30;99.90
39493;DHT22;25176;51.060;3.720;2023-04-01T23:11:57;10.20;99.90
39493;DHT22;25176;51.060;3.720;2023-04-01T23:14:34;10.30;99.90
39493;DHT22;25176;51.060;3.720;2023-04-01T23:17:16;10.40;99.90
39493;DHT22;25176;51.060;3.720;2023-04-01T23:19:46;10.40;99.90
39493;DHT22;25176;51.060;3.720;2023-04-01T23:30:49;10.40;99.90
39493;DHT22;25176;51.060;3.720;2023-04-01T23:33:30;10.20;99.90
39493;DHT22;25176;51.060;3.720;2023-04-01T23:36:23;10.20;99.90
39493;DHT22;25176;51.060;3.720;2023-04-01T23:38:49;10.00;99.90
39493;DHT22;25176;51.060;3.720;2023-04-01T23:41:30;10.10;99.90
39493;DHT22;25176;51.060;3.720;2023-04-01T23:44:10;10.00;99.90
39493;DHT22;25176;51.060;3.720;2023-04-01T23:46:39;10.00;99.90
39493;DHT22;25176;51.060;3.720;2023-04-01T23:49:18;10.00;99.90
39493;DHT22;25176;51.060;3.720;2023-04-01T23:51:56;10.00;99.90
39493;DHT22;25176;51.060;3.720;2023-04-01T23:54:33;9.90;99.90
39493;DHT22;25176;51.060;3.720;2023-04-01T23:57:04;10.10;99.90
39493;DHT22;25176;51.060;3.720;2023-04-01T23:59:36;10.00;99.90
